Time;durP1;ratioP1;P1;durP2;ratioP2;P2;SDS_P1;SDS_P2;PMS_P1;PMS_P2;Temp;Humidity;BMP_temperature;BMP_pressure;BME280_temperature;BME280_humidity;BME280_pressure;Samples;Min_cycle;Max_cycle;Signal;HPM_P1;HPM_P2
2023/04/06 00:00:48;;;;;;;16.07;8.70;;;;;;;-142.75;100.00;78222.19;5033188;28;19916;-64
2023/04/06 00:03:14;;;;;;;22.50;9.43;;;;;;;-142.75;100.00;78216.28;5032540;28;20032;-66
2023/04/06 00:05:39;;;;;;;15.07;8.20;;;;;;;-142.75;100.00;78224.16;5032522;28;20025;-65
2023/04/06 00:08:05;;;;;;;;;;;;;;;-142.75;100.00;78216.28;5033354;28;20040;-64
2023/04/06 00:10:31;;;;;;;20.23;9.30;;;;;;;-142.75;100.00;78212.34;5032984;28;19955;-64
2023/04/06 00:12:57;;;;;;;19.47;9.87;;;;;;;-142.75;100.00;78208.41;5032837;28;20025;-64
2023/04/06 00:15:23;;;;;;;17.53;9.90;;;;;;;-142.75;100.00;78206.44;5032901;28;20037;-65
2023/04/06 00:17:48;;;;;;;19.03;9.10;;;;;;;-142.75;100.00;78202.50;5032257;28;20030;-65
2023/04/06 00:20:14;;;;;;;19.20;9.13;;;;;;;-142.75;100.00;78202.50;5032670;28;20037;-65
2023/04/06 00:22:40;;;;;;;19.20;9.20;;;;;;;-142.75;100.00;78208.41;5032532;28;20104;-65
2023/04/06 00:25:05;;;;;;;20.53;9.60;;;;;;;-142.75;100.00;78210.38;5032692;28;20105;-64
2023/04/06 00:27:31;;;;;;;16.30;9.23;;;;;;;-142.75;100.00;78220.22;5032463;28;20097;-65
2023/04/06 00:29:56;;;;;;;;;;;;;;;-142.75;100.00;78200.53;5032740;28;20404;-64
2023/04/06 00:32:21;;;;;;;18.13;9.00;;;;;;;-142.75;100.00;78214.31;5014492;28;19913;-65
2023/04/06 00:34:47;;;;;;;19.67;8.80;;;;;;;-142.75;100.00;78220.22;5014728;28;20079;-64
2023/04/06 00:37:12;;;;;;;16.87;8.80;;;;;;;-142.75;100.00;78232.03;5031612;28;20083;-65
2023/04/06 00:39:37;;;;;;;19.87;8.57;;;;;;;-142.75;100.00;78214.31;5031967;28;20024;-64
2023/04/06 00:42:10;;;;;;;17.93;8.97;;;;;;;-142.75;100.00;78204.47;5014101;28;20112;-65
2023/04/06 00:44:35;;;;;;;16.57;8.53;;;;;;;-142.75;100.00;78206.44;5029780;28;20025;-65
2023/04/06 00:47:01;;;;;;;16.50;8.13;;;;;;;-142.75;100.00;78202.50;5013870;28;20126;-64
2023/04/06 00:49:26;;;;;;;16.50;8.87;;;;;;;-142.75;100.00;78200.53;5031841;28;20401;-65
2023/04/06 00:51:52;;;;;;;;;;;;;;;-142.75;100.00;78190.69;5029427;28;20032;-65
2023/04/06 00:54:18;;;;;;;15.23;8.57;;;;;;;-142.75;100.00;78210.38;5013900;28;19913;-66
2023/04/06 00:56:43;;;;;;;18.00;9.20;;;;;;;-142.75;100.00;78204.47;5032142;28;20477;-65
2023/04/06 00:59:09;;;;;;;;;;;;;;;-142.75;100.00;78182.81;5032570;28;20100;-66
2023/04/06 01:01:34;;;;;;;14.70;7.73;;;;;;;-142.75;100.00;78188.72;5031877;28;19937;-65
2023/04/06 01:04:00;;;;;;;;;;;;;;;-142.75;100.00;78192.66;5032013;28;20595;-65
2023/04/06 01:06:25;;;;;;;15.53;8.13;;;;;;;-142.75;100.00;78196.59;5031855;28;20283;-63
2023/04/06 01:08:50;;;;;;;15.73;8.43;;;;;;;-142.75;100.00;78198.56;5031860;28;20083;-63
2023/04/06 01:11:17;;;;;;;17.33;8.17;;;;;;;-142.75;100.00;78188.72;5031806;28;20030;-63
2023/04/06 01:13:42;;;;;;;16.57;8.50;;;;;;;-142.75;100.00;78188.72;5031702;28;20104;-63
2023/04/06 01:16:09;;;;;;;16.03;8.80;;;;;;;-142.75;100.00;78192.66;5030972;28;20104;-64
2023/04/06 01:18:35;;;;;;;17.80;8.67;;;;;;;-142.75;100.00;78202.50;5014064;28;20032;-63
2023/04/06 01:21:01;;;;;;;14.03;8.17;;;;;;;-142.75;100.00;78202.50;5014080;28;20029;-63
2023/04/06 01:23:26;;;;;;;18.07;8.90;;;;;;;-142.75;100.00;78208.41;5031488;28;20033;-63
2023/04/06 01:25:51;;;;;;;17.67;9.20;;;;;;;-142.75;100.00;78204.47;5013832;28;20029;-62
2023/04/06 01:28:17;;;;;;;16.07;8.40;;;;;;;-142.75;100.00;78196.59;5031623;28;20033;-62
2023/04/06 01:30:42;;;;;;;11.77;7.87;;;;;;;-142.75;100.00;78200.53;5031596;28;20477;-63
2023/04/06 01:33:07;;;;;;;;;;;;;;;-142.75;100.00;78194.63;5014230;28;20029;-63
2023/04/06 01:35:32;;;;;;;14.03;7.70;;;;;;;-142.75;100.00;78196.59;5031503;28;19909;-63
2023/04/06 01:37:58;;;;;;;16.80;8.53;;;;;;;-142.75;100.00;78186.75;5013794;28;20025;-65
2023/04/06 01:40:23;;;;;;;15.10;8.50;;;;;;;-142.75;100.00;78186.75;5031597;28;20083;-65
2023/04/06 01:42:48;;;;;;;21.23;8.90;;;;;;;-142.75;100.00;78192.66;5031297;28;20061;-65
2023/04/06 01:45:14;;;;;;;14.90;8.50;;;;;;;-142.75;100.00;78188.72;5031256;28;20032;-65
2023/04/06 01:47:40;;;;;;;17.13;9.10;;;;;;;-142.75;100.00;78192.66;5013696;28;20040;-65
2023/04/06 01:50:06;;;;;;;;;;;;;;;-142.75;100.00;78188.72;5014209;28;20032;-65
2023/04/06 01:52:33;;;;;;;15.97;8.33;;;;;;;-142.75;100.00;78176.88;5013456;28;19932;-65
2023/04/06 01:54:58;;;;;;;14.73;8.60;;;;;;;-142.75;100.00;78176.88;5031530;28;20143;-65
2023/04/06 01:57:25;;;;;;;19.10;9.10;;;;;;;-142.75;100.00;78172.94;5031321;28;20456;-65
2023/04/06 01:59:50;;;;;;;16.67;8.67;;;;;;;-142.75;100.00;78178.84;5031285;28;20114;-65
2023/04/06 02:02:15;;;;;;;15.70;8.63;;;;;;;-142.75;100.00;78176.88;5031213;28;20052;-64
2023/04/06 02:04:41;;;;;;;;;;;;;;;-142.75;100.00;78167.03;5031734;28;20037;-65
2023/04/06 02:07:06;;;;;;;16.93;8.53;;;;;;;-142.75;100.00;78165.06;5031176;28;20373;-65
2023/04/06 02:09:31;;;;;;;;;;;;;;;-142.75;100.00;78155.22;5031800;28;20095;-65
2023/04/06 02:11:56;;;;;;;15.40;8.67;;;;;;;-142.75;100.00;78180.81;5031247;28;19909;-65
2023/04/06 02:14:25;;;;;;;22.07;8.97;;;;;;;-142.75;100.00;78161.13;5031287;28;20020;-65
2023/04/06 02:16:51;;;;;;;17.80;9.57;;;;;;;-142.75;100.00;78159.16;5013396;28;20029;-66
2023/04/06 02:19:16;;;;;;;20.33;9.83;;;;;;;-142.75;100.00;78157.19;5013512;28;20034;-66
2023/04/06 02:21:42;;;;;;;15.30;8.37;;;;;;;-142.75;100.00;78167.03;5031151;28;20040;-65
2023/04/06 02:24:07;;;;;;;17.30;8.83;;;;;;;-142.75;100.00;78167.03;5013265;28;20025;-66
2023/04/06 02:26:32;;;;;;;;;;;;;;;-142.75;100.00;78155.22;5031471;28;20052;-66
2023/04/06 02:28:58;;;;;;;15.93;9.20;;;;;;;-142.75;100.00;78149.31;5015443;28;19909;-65
2023/04/06 02:31:23;;;;;;;16.23;8.03;;;;;;;-142.75;100.00;78147.34;5017102;28;20025;-64
2023/04/06 02:33:48;;;;;;;14.40;8.17;;;;;;;-142.75;100.00;78119.78;5034665;28;20033;-66
2023/04/06 02:36:13;;;;;;;;;;;;;;;-142.75;100.00;78113.88;5035126;28;20032;-65
2023/04/06 02:38:39;;;;;;;20.43;8.60;;;;;;;-142.75;100.00;78106.00;5016876;28;19955;-65
2023/04/06 02:41:04;;;;;;;15.70;8.93;;;;;;;-142.75;100.00;78106.00;5034641;28;20029;-65
2023/04/06 02:43:30;;;;;;;16.27;9.30;;;;;;;-142.75;100.00;78102.06;5034246;28;20029;-65
2023/04/06 02:45:55;;;;;;;;;;;;;;;-142.75;100.00;78086.31;5034819;28;20477;-65
2023/04/06 02:48:20;;;;;;;17.73;9.53;;;;;;;-142.75;100.00;78106.00;5034492;28;19909;-65
2023/04/06 02:50:45;;;;;;;;;;;;;;;-142.75;100.00;78102.06;5034697;28;20037;-65
2023/04/06 02:53:11;;;;;;;16.87;9.00;;;;;;;-142.75;100.00;78119.78;5034072;28;19917;-65
2023/04/06 02:55:36;;;;;;;;;;;;;;;-142.75;100.00;78117.81;5034661;28;20030;-65
2023/04/06 02:58:01;;;;;;;14.87;8.73;;;;;;;-142.75;100.00;78113.88;5034225;28;19920;-65
2023/04/06 03:00:26;;;;;;;;;;;;;;;-142.75;100.00;78106.00;5016941;28;20056;-64
2023/04/06 03:02:52;;;;;;;20.93;10.57;;;;;;;-142.75;100.00;78107.97;5033966;28;19909;-65
2023/04/06 03:05:17;;;;;;;21.40;9.73;;;;;;;-142.75;100.00;78102.06;5034085;28;20021;-65
2023/04/06 03:07:42;;;;;;;;;;;;;;;-142.75;100.00;78092.22;5034607;28;20488;-66
2023/04/06 03:10:09;;;;;;;16.40;9.47;;;;;;;-142.75;100.00;78084.34;5034154;28;19909;-66
2023/04/06 03:12:35;;;;;;;19.33;9.83;;;;;;;-142.75;100.00;78094.19;5033617;28;20485;-66
2023/04/06 03:15:00;;;;;;;17.80;9.00;;;;;;;-142.75;100.00;78090.25;5034282;28;20026;-66
2023/04/06 03:17:25;;;;;;;;;;;;;;;-142.75;100.00;78082.38;5016427;28;20026;-65
2023/04/06 03:19:50;;;;;;;19.87;9.43;;;;;;;-142.75;100.00;78090.25;5033915;28;19913;-64
2023/04/06 03:22:16;;;;;;;18.70;9.67;;;;;;;-142.75;100.00;78078.44;5033476;28;20033;-65
2023/04/06 03:24:41;;;;;;;20.67;9.30;;;;;;;-142.75;100.00;78076.47;5033745;28;20045;-66
2023/04/06 03:27:06;;;;;;;;;;;;;;;-142.75;100.00;78070.56;5034011;28;20028;-65
2023/04/06 03:29:32;;;;;;;17.73;9.57;;;;;;;-142.75;100.00;78082.38;5016171;28;19916;-65
2023/04/06 03:31:57;;;;;;;16.80;9.50;;;;;;;-142.75;100.00;78062.69;5033530;28;20128;-65
2023/04/06 03:34:22;;;;;;;17.60;9.90;;;;;;;-142.75;100.00;78056.78;5033600;28;20022;-65
2023/04/06 03:36:48;;;;;;;20.67;10.13;;;;;;;-142.75;100.00;78062.69;5033564;28;20036;-64
2023/04/06 03:39:13;;;;;;;;;;;;;;;-142.75;100.00;78052.81;5033588;28;20033;-65
2023/04/06 03:41:38;;;;;;;16.93;9.13;;;;;;;-142.75;100.00;78046.91;5033552;28;19912;-64
2023/04/06 03:44:05;;;;;;;16.37;9.87;;;;;;;-142.75;100.00;78042.97;5015284;28;20029;-65
2023/04/06 03:46:30;;;;;;;17.70;9.80;;;;;;;-142.75;100.00;78054.81;5033306;28;20104;-66
2023/04/06 03:48:56;;;;;;;19.80;10.10;;;;;;;-142.75;100.00;78064.66;5033375;28;20105;-65
2023/04/06 03:51:21;;;;;;;;;;;;;;;-142.75;100.00;78056.78;5033862;28;20037;-65
2023/04/06 03:53:46;;;;;;;17.80;9.23;;;;;;;-142.75;100.00;78052.81;5033032;28;19913;-65
2023/04/06 03:56:12;;;;;;;20.67;11.23;;;;;;;-142.75;100.00;78058.72;5033151;28;20515;-65
2023/04/06 03:58:37;;;;;;;19.13;9.97;;;;;;;-142.75;100.00;78050.84;5033006;28;20469;-65
2023/04/06 04:01:02;;;;;;;23.27;11.13;;;;;;;-142.75;100.00;78039.03;5015461;28;20023;-65
2023/04/06 04:03:28;;;;;;;;;;;;;;;-142.75;100.00;78039.03;5033176;28;20539;-65
2023/04/06 04:05:55;;;;;;;17.73;9.77;;;;;;;-142.75;100.00;78042.97;5032929;28;19913;-66
2023/04/06 04:08:21;;;;;;;23.77;11.33;;;;;;;-142.75;100.00;78041.00;5033135;28;20568;-65
2023/04/06 04:10:46;;;;;;;19.90;10.67;;;;;;;-142.75;100.00;78035.09;5033086;28;20176;-65
2023/04/06 04:13:11;;;;;;;;;;;;;;;-142.75;100.00;78037.06;5033372;28;20440;-64
2023/04/06 04:15:36;;;;;;;22.03;11.50;;;;;;;-142.75;100.00;78037.06;5032773;28;19916;-66
2023/04/06 04:18:01;;;;;;;;;;;;;;;-142.75;100.00;78031.16;5015425;28;20037;-66
2023/04/06 04:20:28;;;;;;;22.17;10.47;;;;;;;-142.75;100.00;78027.22;5032794;28;19999;-65
2023/04/06 04:22:53;;;;;;;22.03;10.57;;;;;;;-142.75;100.00;78025.25;5014720;28;20030;-65
2023/04/06 04:25:19;;;;;;;24.30;12.27;;;;;;;-142.75;100.00;78023.28;5032553;28;20563;-65
2023/04/06 04:27:44;;;;;;;;;;;;;;;-142.75;100.00;78011.47;5032975;28;20021;-65
2023/04/06 04:30:10;;;;;;;22.33;10.07;;;;;;;-142.75;100.00;78005.56;5032654;28;19912;-65
2023/04/06 04:32:35;;;;;;;;;;;;;;;-142.75;100.00;77995.72;5032783;28;20481;-65
2023/04/06 04:35:00;;;;;;;25.60;10.75;;;;;;;-142.75;100.00;77987.84;5014806;28;20354;-65
2023/04/06 04:37:26;;;;;;;25.07;11.67;;;;;;;-142.75;100.00;77991.78;5032319;28;20026;-62
2023/04/06 04:39:51;;;;;;;;;;;;;;;-142.75;100.00;77979.97;5032914;28;20511;-65
2023/04/06 04:42:16;;;;;;;24.70;9.97;;;;;;;-142.75;100.00;77970.13;5032053;28;19954;-65
2023/04/06 04:44:41;;;;;;;23.00;11.47;;;;;;;-142.75;100.00;77960.28;5032264;28;20082;-65
2023/04/06 04:47:07;;;;;;;25.27;11.17;;;;;;;-142.75;100.00;77958.31;5014460;28;20057;-65
2023/04/06 04:49:32;;;;;;;;;;;;;;;-142.75;100.00;77952.41;5032708;28;20026;-65
2023/04/06 04:51:57;;;;;;;19.80;10.30;;;;;;;-142.75;100.00;77960.28;5031424;28;20307;-65
2023/04/06 04:54:23;;;;;;;23.17;11.23;;;;;;;-142.75;100.00;77964.22;5043474;22;20515;-67
2023/04/06 04:56:48;;;;;;;23.73;11.90;;;;;;;-142.75;100.00;77950.44;5011432;28;20028;-66
2023/04/06 04:59:13;;;;;;;;;;;;;;;-142.75;100.00;77936.66;5012551;28;20036;-67
2023/04/06 05:01:38;;;;;;;23.90;10.90;;;;;;;-142.75;100.00;77946.50;5012623;28;19945;-66
2023/04/06 05:04:04;;;;;;;;;;;;;;;-142.75;99.18;77942.56;4994970;28;20036;-67
2023/04/06 05:06:29;;;;;;;27.33;11.43;;;;;;;-142.75;99.67;77938.63;5012210;28;19910;-67
2023/04/06 05:08:55;;;;;;;;;;;;;;;-142.75;99.84;77936.66;5012836;28;20049;-67
2023/04/06 05:11:21;;;;;;;22.03;10.07;;;;;;;-142.75;99.98;77948.47;4994694;28;19910;-67
2023/04/06 05:13:46;;;;;;;26.27;11.90;;;;;;;-142.75;100.00;77938.63;5011967;28;20513;-67
2023/04/06 05:16:11;;;;;;;23.77;11.87;;;;;;;-142.75;100.00;77922.88;5012336;28;20504;-65
2023/04/06 05:18:37;;;;;;;21.00;10.87;;;;;;;-142.75;100.00;77924.84;5012292;28;20025;-67
2023/04/06 05:21:02;;;;;;;25.53;11.80;;;;;;;-142.75;100.00;77916.97;4994662;28;20033;-66
2023/04/06 05:23:27;;;;;;;;;;;;;;;-142.75;100.00;77913.03;5012508;28;20030;-67
2023/04/06 05:25:53;;;;;;;21.40;10.90;;;;;;;-142.75;100.00;77920.91;5012113;28;19920;-67
2023/04/06 05:28:18;;;;;;;;;;;;;;;-142.75;100.00;77911.06;5012862;28;20037;-67
2023/04/06 05:30:45;;;;;;;22.97;10.73;;;;;;;-142.75;100.00;77905.13;5012267;28;19968;-66
2023/04/06 05:33:11;;;;;;;26.93;12.30;;;;;;;-142.75;100.00;77911.06;4994411;28;20037;-67
2023/04/06 05:35:36;;;;;;;25.20;12.60;;;;;;;-142.75;100.00;77916.97;5011939;28;20038;-67
2023/04/06 05:38:02;;;;;;;;;;;;;;;-142.75;100.00;77907.09;5012717;28;20117;-66
2023/04/06 05:40:27;;;;;;;23.13;11.30;;;;;;;-142.75;100.00;77911.06;5012146;28;19916;-67
2023/04/06 05:42:53;;;;;;;25.63;12.50;;;;;;;-142.75;100.00;77909.06;5011885;28;20057;-67
2023/04/06 05:45:18;;;;;;;26.70;12.53;;;;;;;-142.75;100.00;77899.22;5012012;28;20022;-67
2023/04/06 05:47:45;;;;;;;24.30;12.13;;;;;;;-142.75;100.00;77913.03;5012078;28;20091;-67
2023/04/06 05:50:11;;;;;;;24.73;12.47;;;;;;;-142.75;100.00;77903.16;5012179;28;20030;-67
2023/04/06 05:52:37;;;;;;;25.90;12.27;;;;;;;-142.75;100.00;77907.09;5011772;28;20022;-67
2023/04/06 05:55:03;;;;;;;25.73;12.53;;;;;;;-142.75;100.00;77903.16;5011655;28;20029;-67
2023/04/06 05:57:29;;;;;;;29.03;13.57;;;;;;;-142.75;100.00;77899.22;5011751;28;20029;-67
2023/04/06 05:59:55;;;;;;;29.73;14.57;;;;;;;-142.75;100.00;77903.16;4994285;28;20025;-67
2023/04/06 06:02:20;;;;;;;32.93;13.73;;;;;;;-142.75;100.00;77901.19;4995441;28;20026;-67
2023/04/06 06:04:46;;;;;;;;;;;;;;;-142.75;100.00;77881.50;5016032;28;20033;-67
2023/04/06 06:07:11;;;;;;;29.40;13.23;;;;;;;-142.75;100.00;77885.44;4998064;28;20491;-67
2023/04/06 06:09:36;;;;;;;26.80;13.10;;;;;;;-142.75;100.00;77889.38;4998226;28;20505;-67
2023/04/06 06:12:02;;;;;;;29.83;14.07;;;;;;;-142.75;100.00;77873.63;4997733;28;20060;-67
2023/04/06 06:14:30;;;;;;;;;;;;;;;-142.75;100.00;77873.63;5015896;28;20079;-67
2023/04/06 06:16:55;;;;;;;31.57;13.10;;;;;;;-142.75;100.00;77877.56;5015403;28;19916;-67
2023/04/06 06:19:20;;;;;;;31.37;14.97;;;;;;;-142.75;100.00;77873.63;4997763;28;20021;-67
2023/04/06 06:21:46;;;;;;;;;;;;;;;-142.75;100.00;77857.88;4998046;28;20503;-66
2023/04/06 06:24:11;;;;;;;35.27;15.40;;;;;;;-142.75;100.00;77863.78;4997400;28;19914;-66
2023/04/06 06:26:37;;;;;;;24.00;13.33;;;;;;;-142.75;100.00;77857.88;5015137;28;20496;-67
2023/04/06 06:29:05;;;;;;;27.00;14.73;;;;;;;-142.75;100.00;77853.94;5015263;28;20029;-67
2023/04/06 06:31:30;;;;;;;27.63;13.77;;;;;;;-142.75;100.00;77842.13;5015256;28;20101;-67
2023/04/06 06:33:55;;;;;;;25.57;13.53;;;;;;;-142.75;100.00;77826.38;5015062;28;20516;-66
2023/04/06 06:36:21;;;;;;;28.23;13.47;;;;;;;-142.75;100.00;77832.28;5014874;28;20088;-67
2023/04/06 06:38:46;;;;;;;27.43;14.20;;;;;;;-142.75;100.00;77828.34;5015055;28;20026;-67
2023/04/06 06:41:11;;;;;;;;;;;;;;;-142.75;100.00;77818.50;4997748;28;20421;-67
2023/04/06 06:43:37;;;;;;;30.93;13.80;;;;;;;-142.75;100.00;77812.59;5014846;28;20281;-67
2023/04/06 06:46:03;;;;;;;31.20;14.60;;;;;;;-142.75;100.00;77816.53;5014831;28;20033;-66
2023/04/06 06:48:28;;;;;;;29.40;13.83;;;;;;;-142.75;100.00;77820.47;4997408;28;20479;-66
2023/04/06 06:50:54;;;;;;;34.30;14.60;;;;;;;-142.75;100.00;77806.69;5014930;28;20112;-67
2023/04/06 06:53:20;;;;;;;32.27;14.17;;;;;;;-142.75;100.00;77812.59;4996999;28;20026;-67
2023/04/06 06:55:45;;;;;;;;;;;;;;;-142.75;100.00;77806.69;5015042;28;20045;-67
2023/04/06 06:58:11;;;;;;;36.40;14.07;;;;;;;-142.75;100.00;77826.38;4997071;28;20381;-67
2023/04/06 07:00:36;;;;;;;29.37;14.10;;;;;;;-142.75;100.00;77806.69;5014776;28;20116;-67
2023/04/06 07:03:01;;;;;;;;;;;;;;;-142.75;100.00;77800.78;5014834;28;20026;-67
2023/04/06 07:05:26;;;;;;;27.00;14.13;;;;;;;-142.75;100.00;77785.03;5014467;28;19917;-67
2023/04/06 07:07:52;;;;;;;29.70;14.70;;;;;;;-142.75;100.00;77785.03;5014416;28;20033;-67
2023/04/06 07:10:17;;;;;;;31.97;14.63;;;;;;;-142.75;100.00;77781.09;4997054;28;20033;-67
2023/04/06 07:12:42;;;;;;;31.60;15.23;;;;;;;-142.75;100.00;77779.13;5014497;28;20022;-66
2023/04/06 07:15:08;;;;;;;28.33;14.17;;;;;;;-142.75;100.00;77773.22;5013609;28;20022;-67
2023/04/06 07:17:33;;;;;;;;;;;;;;;-142.75;100.00;77751.56;5014846;28;20454;-66
2023/04/06 07:19:59;;;;;;;29.43;13.73;;;;;;;-142.75;100.00;77761.41;5014475;28;19909;-67
2023/04/06 07:22:24;;;;;;;;;;;;;;;-142.75;100.00;77757.47;4997037;28;20402;-67
2023/04/06 07:24:50;;;;;;;29.97;13.50;;;;;;;-142.75;100.00;77761.41;5014180;28;19961;-66
2023/04/06 07:27:16;;;;;;;;;;;;;;;-142.75;100.00;77749.59;4997078;28;20120;-67
2023/04/06 07:29:41;;;;;;;27.13;15.17;;;;;;;-142.75;100.00;77747.63;5014235;28;19916;-67
2023/04/06 07:32:07;;;;;;;29.93;15.13;;;;;;;-142.75;100.00;77735.81;4996518;28;20014;-66
2023/04/06 07:34:32;;;;;;;31.10;16.17;;;;;;;-142.75;100.00;77723.97;5014043;28;20018;-68
2023/04/06 07:36:57;;;;;;;;;;;;;;;-142.75;100.00;77708.22;5014294;28;20034;-68
2023/04/06 07:39:23;;;;;;;29.83;15.33;;;;;;;-142.75;100.00;77716.09;5014039;28;20365;-67
2023/04/06 07:41:48;;;;;;;;;;;;;;;-142.75;100.00;77720.03;5014136;28;20018;-67
2023/04/06 07:44:14;;;;;;;27.80;14.63;;;;;;;-142.75;100.00;77739.75;5013732;28;19920;-67
2023/04/06 07:46:39;;;;;;;26.37;14.63;;;;;;;-142.75;100.00;77720.03;5013837;28;20440;-67
2023/04/06 07:49:05;;;;;;;;;;;;;;;-142.75;100.00;77733.84;5014240;28;20053;-66
2023/04/06 07:51:30;;;;;;;26.17;14.17;;;;;;;-142.75;100.00;77725.97;5013771;28;20000;-66
2023/04/06 07:53:56;;;;;;;36.37;16.50;;;;;;;-142.75;100.00;77725.97;5013388;28;20033;-67
2023/04/06 07:56:21;;;;;;;27.03;14.13;;;;;;;-142.75;100.00;77723.97;5013501;28;20604;-67
2023/04/06 07:58:47;;;;;;;;;;;;;;;-142.75;100.00;77714.13;4996449;28;20026;-68
2023/04/06 08:01:12;;;;;;;27.23;14.37;;;;;;;-142.75;100.00;77714.13;5013599;28;19909;-67
2023/04/06 08:03:38;;;;;;;;;;;;;;;-142.75;100.00;77698.38;5013757;28;20417;-67
2023/04/06 08:06:03;;;;;;;28.40;14.50;;;;;;;-142.75;100.00;77696.41;5013323;28;19916;-67
2023/04/06 08:08:29;;;;;;;31.43;16.03;;;;;;;-142.75;100.00;77686.56;5021831;28;20377;-67
2023/04/06 08:10:54;;;;;;;28.60;16.23;;;;;;;-142.75;100.00;77684.59;5014348;28;20112;-64
2023/04/06 08:13:19;;;;;;;;;;;;;;;-142.75;100.00;77696.41;5023298;28;20484;-64
2023/04/06 08:15:45;;;;;;;29.27;14.27;;;;;;;-142.75;100.00;77684.59;5022692;28;19913;-65
2023/04/06 08:18:11;;;;;;;28.97;15.87;;;;;;;-142.75;100.00;77696.41;5022018;28;20021;-65
2023/04/06 08:20:36;;;;;;;29.33;15.57;;;;;;;-142.75;100.00;77696.41;5010507;28;20029;-68
2023/04/06 08:23:01;;;;;;;35.23;17.73;;;;;;;-142.75;100.00;77684.59;5023678;28;20473;-67
2023/04/06 08:25:27;;;;;;;35.83;16.10;;;;;;;-142.75;100.00;77688.53;5011447;28;20040;-67
2023/04/06 08:27:52;;;;;;;;;;;;;;;-142.75;100.00;77684.59;5024986;28;20048;-67
2023/04/06 08:30:19;;;;;;;34.03;16.33;;;;;;;-142.75;100.00;77696.41;5003658;28;19919;-67
2023/04/06 08:32:47;;;;;;;32.17;15.70;;;;;;;-142.75;100.00;77688.53;5022334;28;20100;-66
2023/04/06 08:35:13;;;;;;;33.73;17.57;;;;;;;-142.75;100.00;77674.75;5021632;28;20040;-66
2023/04/06 08:37:38;;;;;;;33.27;16.20;;;;;;;-142.75;100.00;77692.47;5020542;28;20018;-65
2023/04/06 08:40:05;;;;;;;41.07;16.90;;;;;;;-142.75;100.00;77684.59;5024874;28;20096;-65
2023/04/06 08:42:32;;;;;;;30.83;15.60;;;;;;;-142.75;100.00;77688.53;5031350;28;20023;-66
2023/04/06 08:44:59;;;;;;;30.80;15.87;;;;;;;-142.75;100.00;77692.47;5017707;28;20033;-67
2023/04/06 08:47:24;;;;;;;44.10;17.23;;;;;;;-142.75;100.00;77688.53;5005434;28;20036;-67
2023/04/06 08:49:51;;;;;;;37.40;20.37;;;;;;;-142.75;100.00;77676.72;5021711;28;20021;-67
2023/04/06 08:52:18;;;;;;;29.70;12.43;;;;;;;-142.75;100.00;77655.06;5004367;28;20535;-67
2023/04/06 08:54:44;;;;;;;31.30;13.83;;;;;;;-142.75;100.00;77678.69;5023135;28;20033;-67
2023/04/06 08:57:10;;;;;;;25.37;12.87;;;;;;;-142.75;100.00;77670.81;5021643;28;20057;-67
2023/04/06 08:59:36;;;;;;;26.10;12.80;;;;;;;-142.75;100.00;77668.84;5002417;28;20028;-67
2023/04/06 09:02:05;;;;;;;27.33;12.13;;;;;;;-142.75;100.00;77649.16;5012789;28;20033;-67
2023/04/06 09:04:32;;;;;;;24.20;10.83;;;;;;;-142.75;100.00;77672.78;5012569;28;20374;-67
2023/04/06 09:06:58;;;;;;;23.87;10.80;;;;;;;-142.75;100.00;77649.16;5012453;28;20057;-67
2023/04/06 09:09:24;;;;;;;20.33;9.50;;;;;;;-142.75;100.00;77680.66;5002720;28;20022;-66
2023/04/06 09:11:51;;;;;;;18.67;9.53;;;;;;;-142.75;100.00;77659.00;5023035;28;20124;-66
2023/04/06 09:14:17;;;;;;;21.87;10.37;;;;;;;-142.75;100.00;77668.84;4987282;28;20022;-66
2023/04/06 09:16:45;;;;;;;20.73;8.23;;;;;;;-142.75;100.00;77694.44;5020083;28;20095;-66
2023/04/06 09:19:11;;;;;;;18.67;8.97;;;;;;;-142.75;100.00;77678.69;5032616;28;20037;-66
2023/04/06 09:21:37;;;;;;;14.80;8.20;;;;;;;-142.75;100.00;77688.53;5032462;28;20049;-66
2023/04/06 09:24:03;;;;;;;19.93;9.73;;;;;;;-142.75;100.00;77668.84;5032148;28;20481;-66
2023/04/06 09:26:29;;;;;;;22.30;7.80;;;;;;;-142.75;100.00;77664.91;5032516;28;20030;-66
2023/04/06 09:28:57;;;;;;;14.47;7.03;;;;;;;-142.75;100.00;77688.53;5031785;28;20036;-64
2023/04/06 09:31:25;;;;;;;15.90;7.90;;;;;;;-142.75;100.00;77659.00;5032427;28;20401;-66
2023/04/06 09:33:52;;;;;;;18.13;7.77;;;;;;;-142.75;100.00;77655.06;5032356;28;20528;-65
2023/04/06 09:36:18;;;;;;;12.83;6.30;;;;;;;-142.75;100.00;77672.78;5014889;28;20025;-66
2023/04/06 09:39:00;;;;;;;13.00;6.83;;;;;;;-142.75;100.00;77649.16;5034787;28;20036;-66
2023/04/06 09:41:32;;;;;;;15.17;6.60;;;;;;;-142.75;100.00;77649.16;5028069;28;20116;-66
2023/04/06 09:44:08;;;;;;;14.03;6.70;;;;;;;-142.75;100.00;77668.84;5022216;28;20022;-67
2023/04/06 09:46:36;;;;;;;10.50;5.63;;;;;;;-142.75;100.00;77653.09;5017444;28;20482;-67
2023/04/06 09:49:06;;;;;;;11.10;6.33;;;;;;;-142.75;100.00;77647.19;5026825;28;20029;-68
2023/04/06 09:51:36;;;;;;;13.43;6.13;;;;;;;-142.75;100.00;77637.34;5022272;28;20030;-64
2023/04/06 09:54:04;;;;;;;13.57;6.77;;;;;;;-142.75;100.00;77619.63;5013008;28;20029;-65
2023/04/06 09:56:37;;;;;;;15.10;7.43;;;;;;;-142.75;100.00;77619.63;5031779;28;20439;-66
2023/04/06 09:59:12;;;;;;;16.33;6.37;;;;;;;-142.75;100.00;77660.97;5031836;28;20473;-66
2023/04/06 10:01:39;;;;;;;9.48;5.00;;;;;;;-142.75;100.00;77627.50;5026962;28;20037;-66
2023/04/06 10:04:31;;;;;;;10.53;6.23;;;;;;;-142.75;100.00;77645.22;5020019;28;20396;-65
2023/04/06 10:06:58;;;;;;;12.37;6.70;;;;;;;-142.75;100.00;77649.16;5021864;28;20036;-67
2023/04/06 10:09:27;;;;;;;12.93;6.57;;;;;;;-142.75;100.00;77668.84;5020068;28;20022;-67
2023/04/06 10:11:54;;;;;;;20.43;7.63;;;;;;;-142.75;100.00;77674.75;5021372;28;20060;-66
2023/04/06 10:14:20;;;;;;;11.07;6.50;;;;;;;-142.75;100.00;77657.03;5004569;28;20010;-66
2023/04/06 10:16:48;;;;;;;13.13;7.43;;;;;;;-142.75;100.00;77645.22;5020101;28;20026;-66
2023/04/06 10:19:18;;;;;;;16.80;8.47;;;;;;;-142.75;100.00;77629.47;5021166;28;20524;-66
2023/04/06 10:21:48;;;;;;;15.10;7.67;;;;;;;-142.75;100.00;77621.59;5027855;28;20052;-66
2023/04/06 10:24:13;;;;;;;12.83;7.40;;;;;;;-142.75;100.00;77627.50;5031478;28;20032;-67
2023/04/06 10:26:39;;;;;;;13.07;7.93;;;;;;;-142.75;100.00;77629.47;5007835;28;20021;-66
2023/04/06 10:29:05;;;;;;;14.93;8.10;;;;;;;-142.75;100.00;77605.84;5021576;28;20045;-66
2023/04/06 10:31:31;;;;;;;17.50;9.30;;;;;;;-142.75;100.00;77601.91;5011515;28;20037;-66
2023/04/06 10:34:01;;;;;;;13.27;8.33;;;;;;;-142.75;100.00;77588.13;4993692;28;20018;-68
2023/04/06 10:36:29;;;;;;;15.80;8.30;;;;;;;-142.75;100.00;77574.34;4993623;28;20026;-67
2023/04/06 10:38:58;;;;;;;13.20;8.53;;;;;;;-142.75;100.00;77578.28;4993730;28;20088;-67
2023/04/06 10:41:25;;;;;;;13.87;8.40;;;;;;;-142.75;100.00;77574.34;5011398;28;20033;-67
2023/04/06 10:43:57;;;;;;;13.00;7.63;;;;;;;-142.75;100.00;77578.28;4993612;28;20030;-67
2023/04/06 10:46:27;;;;;;;11.70;7.27;;;;;;;-142.75;100.00;77597.97;4993544;28;20025;-67
2023/04/06 10:48:53;;;;;;;16.53;8.67;;;;;;;-142.75;100.00;77582.22;5011759;28;20026;-67
2023/04/06 10:51:20;;;;;;;14.37;7.80;;;;;;;-142.75;100.00;77582.22;5014699;28;20037;-67
2023/04/06 10:53:48;;;;;;;14.07;7.90;;;;;;;-142.75;100.00;77568.44;5031629;22;20074;-66
2023/04/06 10:56:15;;;;;;;13.60;7.93;;;;;;;-142.75;100.00;77570.41;4993785;28;20026;-66
2023/04/06 10:58:48;;;;;;;13.80;7.33;;;;;;;-142.75;100.00;77562.53;4994693;28;20545;-65
2023/04/06 11:01:19;;;;;;;12.60;7.83;;;;;;;-142.75;100.00;77558.59;4994823;28;20383;-65
2023/04/06 11:03:52;;;;;;;14.13;7.73;;;;;;;-142.75;100.00;77548.75;4994598;28;20030;-65
2023/04/06 11:06:22;;;;;;;13.97;8.17;;;;;;;-142.75;100.00;77521.19;4994731;28;20026;-65